< < Back
Terminal Aerodrome Forecast


Current Version              Previous Versions:   1  2  3  4  5  6  7  8  9  

Terminal Aerodrome Forecast

945
FTUS42 KFFC 171743
TAFCSG
TAF
KCSG 171743Z 1718/1818 34006KT P6SM FEW250
     FM180000 00000KT P6SM SCT250
     FM181000 00000KT P6SM SCT200
     FM181600 31003KT P6SM SCT070=

Latest METAR

345
SAUS70 KWBC 181000
MTRCSG
METAR KCSG 180951Z AUTO 31003KT 10SM CLR 04/02 A3014 RMK AO2 SLP205
T00390022 $


USA.gov is the U.S. government's official web portal to all federal, state and local government web resources and services.